Time;durP1;ratioP1;P1;durP2;ratioP2;P2;SDS_P1;SDS_P2;PMS_P1;PMS_P2;Temp;Humidity;BMP_temperature;BMP_pressure;BME280_temperature;BME280_humidity;BME280_pressure;Samples;Min_cycle;Max_cycle;Signal;HPM_P1;HPM_P2
2021/06/11 00:02:31;;;;;;;12.47;8.85;;;;;;;17.37;84.28;100354.67;2627275;90;21025;-61
2021/06/11 00:06:33;;;;;;;17.98;8.95;;;;;;;17.33;84.58;100353.34;2627540;90;21116;-60
2021/06/11 00:10:35;;;;;;;12.37;9.15;;;;;;;17.32;84.97;100354.34;2627629;90;21093;-60
2021/06/11 00:14:37;;;;;;;12.85;8.85;;;;;;;17.37;85.27;100354.15;2627552;90;21124;-60
2021/06/11 00:18:39;;;;;;;20.27;10.03;;;;;;;17.44;85.41;100345.43;2627430;88;21068;-61
2021/06/11 00:22:42;;;;;;;16.23;9.30;;;;;;;17.48;85.38;100342.20;2632290;89;21640;-60
2021/06/11 00:26:43;;;;;;;13.80;8.28;;;;;;;17.53;84.91;100340.36;2681329;88;21059;-61
2021/06/11 00:30:45;;;;;;;14.35;8.53;;;;;;;17.55;85.33;100341.88;2681655;88;21047;-60
2021/06/11 00:34:47;;;;;;;12.03;8.65;;;;;;;17.59;85.51;100345.57;2681892;88;21139;-60
2021/06/11 00:38:49;;;;;;;10.93;8.98;;;;;;;17.55;85.51;100339.19;2681140;88;21040;-60
2021/06/11 00:42:51;;;;;;;13.83;8.90;;;;;;;17.62;86.19;100342.05;2681720;88;21593;-60
2021/06/11 00:46:53;;;;;;;15.75;9.25;;;;;;;17.69;86.26;100344.38;2682246;88;21313;-61
2021/06/11 00:50:54;;;;;;;14.45;10.25;;;;;;;17.80;86.36;100341.83;2693037;87;21087;-61
2021/06/11 00:54:56;;;;;;;16.20;8.70;;;;;;;17.89;85.99;100341.82;2653509;89;21032;-61
2021/06/11 00:58:58;;;;;;;23.00;9.15;;;;;;;17.91;85.49;100341.14;2638278;90;21091;-60
2021/06/11 01:03:00;;;;;;;13.05;9.10;;;;;;;17.91;85.67;100347.87;2697634;88;21023;-62
2021/06/11 01:07:03;;;;;;;15.98;9.73;;;;;;;17.89;85.49;100351.23;2632675;90;21161;-60
2021/06/11 01:11:05;;;;;;;14.85;9.38;;;;;;;17.88;85.96;100337.42;2632798;90;21065;-61
2021/06/11 01:15:09;;;;;;;9.93;8.93;;;;;;;17.82;85.68;100337.11;2632379;90;21090;-61
2021/06/11 01:19:14;;;;;;;14.05;10.85;;;;;;;17.87;86.31;100335.75;2632739;90;21058;-60
2021/06/11 01:23:50;;;;;;;14.03;9.43;;;;;;;17.89;86.20;100335.09;2632660;90;21057;-61
2021/06/11 01:27:52;;;;;;;9.93;8.13;;;;;;;17.93;86.34;100335.08;2609137;90;21575;-61
2021/06/11 01:32:01;;;;;;;11.78;9.05;;;;;;;17.91;86.11;100329.85;2632980;90;21129;-60
2021/06/11 01:36:07;;;;;;;13.55;9.98;;;;;;;17.89;86.15;100321.64;2631910;90;21081;-61
2021/06/11 01:40:11;;;;;;;15.83;9.78;;;;;;;17.82;86.46;100319.63;2632931;90;21082;-60
2021/06/11 01:44:14;;;;;;;11.33;9.25;;;;;;;17.83;86.96;100317.27;2632326;90;21141;-60
2021/06/11 01:48:20;;;;;;;14.78;10.05;;;;;;;17.92;86.98;100317.25;2632721;90;21003;-60
2021/06/11 01:52:24;;;;;;;13.43;9.28;;;;;;;17.91;86.65;100316.92;2633294;90;21074;-60
2021/06/11 01:56:27;;;;;;;12.78;9.53;;;;;;;17.92;86.97;100310.52;2632734;90;21089;-60
2021/06/11 02:00:29;;;;;;;9.95;8.28;;;;;;;17.96;86.97;100313.20;2632757;90;21038;-60
2021/06/11 02:04:32;;;;;;;17.37;11.55;;;;;;;17.95;86.62;100312.86;2612687;90;21121;-61
2021/06/11 02:08:35;;;;;;;14.70;9.73;;;;;;;17.88;86.94;100315.89;2632811;90;21102;-61
2021/06/11 02:12:38;;;;;;;12.50;8.18;;;;;;;17.89;86.94;100320.30;2632717;90;21030;-60
2021/06/11 02:16:44;;;;;;;12.78;9.23;;;;;;;17.89;86.70;100315.73;2632689;90;21133;-60
2021/06/11 02:20:46;;;;;;;11.40;9.53;;;;;;;17.89;86.79;100324.33;2632756;90;21062;-61
2021/06/11 02:24:48;;;;;;;11.95;9.53;;;;;;;17.82;86.80;100321.48;2632810;90;21066;-61
2021/06/11 02:28:51;;;;;;;9.58;8.58;;;;;;;17.81;86.91;100321.98;2632664;90;21582;-61
2021/06/11 02:32:53;;;;;;;17.02;8.78;;;;;;;17.80;86.78;100320.30;2632839;90;21106;-61
2021/06/11 02:36:55;;;;;;;14.87;9.35;;;;;;;17.79;86.84;100321.84;2632645;90;21650;-61
2021/06/11 02:40:58;;;;;;;10.20;8.18;;;;;;;17.80;86.94;100320.30;2632713;90;21347;-61
2021/06/11 02:45:09;;;;;;;13.18;9.28;;;;;;;17.70;87.07;100325.05;2632489;90;21070;-60
2021/06/11 02:49:24;;;;;;;12.00;9.33;;;;;;;17.55;87.99;100325.75;2631733;90;21073;-61
2021/06/11 02:53:29;;;;;;;14.83;10.87;;;;;;;17.45;88.93;100323.73;2636365;90;21603;-61
2021/06/11 02:57:35;;;;;;;11.12;9.43;;;;;;;17.52;89.30;100327.44;2622524;90;21081;-61
2021/06/11 03:01:42;;;;;;;12.58;9.30;;;;;;;17.60;89.44;100321.20;2648310;89;21104;-60
2021/06/11 03:05:45;;;;;;;10.98;8.90;;;;;;;17.67;89.34;100321.33;2648728;90;21089;-61
2021/06/11 03:09:47;;;;;;;12.82;9.33;;;;;;;17.82;89.44;100318.27;2648464;89;21034;-61
2021/06/11 03:13:51;;;;;;;13.70;8.73;;;;;;;17.93;88.26;100325.66;2647958;89;21105;-60
2021/06/11 03:17:57;;;;;;;12.45;8.68;;;;;;;18.05;88.35;100328.31;2648434;90;21531;-60
2021/06/11 03:22:09;;;;;;;10.90;8.30;;;;;;;18.12;87.48;100326.62;2648377;90;21037;-61
2021/06/11 03:26:15;;;;;;;11.30;7.95;;;;;;;18.09;87.00;100325.64;2648585;90;21053;-60
2021/06/11 03:30:18;;;;;;;14.93;8.98;;;;;;;18.04;87.38;100325.30;2648437;90;21072;-60
2021/06/11 03:34:26;;;;;;;11.90;9.65;;;;;;;17.98;87.98;100321.93;2648759;90;21101;-61
2021/06/11 03:38:31;;;;;;;11.90;9.43;;;;;;;17.92;88.87;100323.45;2648479;90;21426;-60
2021/06/11 03:42:33;;;;;;;13.17;8.80;;;;;;;17.93;89.68;100322.97;2648180;90;21157;-62
2021/06/11 03:46:37;;;;;;;12.58;9.80;;;;;;;18.06;89.95;100317.06;2622308;90;21081;-60
2021/06/11 03:50:42;;;;;;;14.63;9.80;;;;;;;18.11;89.93;100311.49;2634463;89;21032;-61
2021/06/11 03:54:47;;;;;;;17.48;8.83;;;;;;;18.24;90.32;100311.42;2689747;87;21049;-61
2021/06/11 03:58:50;;;;;;;9.20;7.87;;;;;;;18.34;90.33;100313.40;2672007;89;21486;-60
2021/06/11 04:02:52;;;;;;;14.85;9.23;;;;;;;18.50;90.44;100307.08;2671692;89;21040;-60
2021/06/11 04:07:36;;;;;;;10.13;8.85;;;;;;;18.63;89.65;100315.91;2671990;89;21542;-60
2021/06/11 04:12:01;;;;;;;17.48;10.23;;;;;;;18.68;89.14;100313.55;2671702;89;21108;-61
2021/06/11 04:16:07;;;;;;;10.48;9.03;;;;;;;18.87;89.65;100318.13;2671860;89;21080;-61
2021/06/11 04:20:17;;;;;;;13.00;9.50;;;;;;;18.95;88.08;100322.10;2672580;89;21084;-63
2021/06/11 04:24:27;;;;;;;14.90;8.80;;;;;;;19.01;88.51;100317.03;2672794;89;21021;-60
2021/06/11 04:28:33;;;;;;;9.90;8.55;;;;;;;19.18;88.37;100323.97;2672677;89;21053;-60
2021/06/11 04:32:34;;;;;;;;;;;;;;;19.30;86.93;100323.55;2655976;89;21036;-60
2021/06/11 04:36:36;;;;;;;12.35;10.05;;;;;;;19.26;87.40;100329.80;2673254;89;20169;-59
2021/06/11 04:40:38;;;;;;;14.03;10.53;;;;;;;19.46;88.42;100330.14;2676724;86;21024;-60
2021/06/11 04:44:40;;;;;;;12.47;11.05;;;;;;;19.70;88.33;100339.00;2685986;86;21127;-60
2021/06/11 04:48:41;;;;;;;14.55;10.32;;;;;;;20.04;88.18;100347.07;2693519;86;21083;-59
2021/06/11 04:52:43;;;;;;;10.25;9.25;;;;;;;20.22;86.30;100343.15;2690084;86;21056;-60
2021/06/11 04:56:48;;;;;;;10.20;9.20;;;;;;;20.33;85.28;100337.28;2687816;86;21032;-60
2021/06/11 05:00:49;;;;;;;15.03;8.80;;;;;;;20.59;85.97;100345.89;2728137;86;21055;-60
2021/06/11 05:04:51;;;;;;;14.53;10.28;;;;;;;20.94;84.55;100346.91;2760431;86;21008;-59
2021/06/11 05:08:53;;;;;;;10.38;8.45;;;;;;;21.13;82.43;100345.94;2760248;86;21031;-60
2021/06/11 05:12:55;;;;;;;15.80;9.75;;;;;;;21.18;80.58;100346.72;2760402;86;21611;-61
2021/06/11 05:16:56;;;;;;;12.95;8.90;;;;;;;21.03;80.57;100341.36;2729489;86;21043;-60
2021/06/11 05:21:00;;;;;;;14.10;9.83;;;;;;;20.93;80.93;100345.73;2760042;86;21011;-60
2021/06/11 05:25:06;;;;;;;10.95;9.15;;;;;;;20.87;80.92;100345.17;2759975;86;21117;-60
2021/06/11 05:29:07;;;;;;;11.78;9.70;;;;;;;20.78;80.98;100344.42;2759857;86;21039;-60
2021/06/11 05:33:09;;;;;;;8.43;7.62;;;;;;;20.79;81.33;100343.39;2759973;86;21024;-60
2021/06/11 05:37:13;;;;;;;13.78;9.65;;;;;;;20.77;81.36;100340.89;2760054;86;20984;-60
2021/06/11 05:41:16;;;;;;;11.97;9.93;;;;;;;20.77;82.23;100350.86;2760105;86;21079;-60
2021/06/11 05:45:18;;;;;;;12.23;9.55;;;;;;;20.97;82.35;100335.70;2759985;86;21055;-60
2021/06/11 05:49:20;;;;;;;13.53;9.73;;;;;;;21.32;82.25;100337.70;2759900;86;21014;-60
2021/06/11 05:53:23;;;;;;;14.00;10.55;;;;;;;21.91;81.93;100338.34;2760417;86;20999;-61
2021/06/11 05:57:25;;;;;;;15.23;9.70;;;;;;;22.20;77.74;100335.03;2773202;86;21556;-59
2021/06/11 06:01:27;;;;;;;12.18;9.73;;;;;;;22.04;76.86;100342.13;2772587;86;21066;-61
2021/06/11 06:05:31;;;;;;;11.35;9.65;;;;;;;21.90;78.43;100341.23;2773044;86;21493;-60
2021/06/11 06:09:32;;;;;;;11.78;8.45;;;;;;;21.74;77.83;100343.21;2773035;86;21070;-60
2021/06/11 06:13:34;;;;;;;9.48;7.85;;;;;;;21.57;78.78;100340.45;2773114;86;21059;-60
2021/06/11 06:17:36;;;;;;;9.10;8.23;;;;;;;21.74;79.15;100347.27;2773107;86;21011;-61
2021/06/11 06:21:40;;;;;;;25.55;9.75;;;;;;;22.17;78.62;100354.90;2773209;86;21575;-61
2021/06/11 06:25:42;;;;;;;15.70;9.83;;;;;;;22.66;75.85;100355.23;2772948;85;21111;-60
2021/06/11 06:29:48;;;;;;;16.35;10.98;;;;;;;22.86;74.83;100351.73;2722581;86;21085;-60
2021/06/11 06:33:50;;;;;;;11.22;8.85;;;;;;;22.79;74.70;100348.16;2706105;88;21032;-60
2021/06/11 06:37:51;;;;;;;11.68;10.48;;;;;;;22.61;75.43;100348.25;2706269;88;21059;-61
2021/06/11 06:41:57;;;;;;;15.98;9.83;;;;;;;22.63;76.86;100348.87;2706053;88;21036;-60
2021/06/11 06:46:01;;;;;;;11.65;10.45;;;;;;;22.84;75.50;100347.05;2706644;88;21060;-60
2021/06/11 06:50:06;;;;;;;13.45;9.08;;;;;;;23.25;74.43;100339.77;2706861;87;21020;-60
2021/06/11 06:54:07;;;;;;;13.08;11.40;;;;;;;23.76;71.63;100337.47;2703749;88;21101;-60
2021/06/11 06:58:09;;;;;;;11.68;9.98;;;;;;;24.09;69.66;100340.11;2682586;88;21009;-60
2021/06/11 07:02:11;;;;;;;15.98;8.88;;;;;;;24.30;67.13;100344.95;2682751;88;21068;-60
2021/06/11 07:06:14;;;;;;;11.12;9.93;;;;;;;24.56;67.49;100344.50;2682921;88;21535;-60
2021/06/11 07:10:15;;;;;;;10.15;9.15;;;;;;;24.90;66.89;100345.17;2682964;88;21117;-61
2021/06/11 07:14:18;;;;;;;13.50;8.78;;;;;;;25.13;65.79;100332.86;2682966;88;21120;-60
2021/06/11 07:18:20;;;;;;;8.60;7.17;;;;;;;25.27;66.31;100332.77;2682852;88;21112;-60
2021/06/11 07:22:21;;;;;;;9.88;8.50;;;;;;;25.60;65.16;100337.92;2683128;88;21060;-60
2021/06/11 07:26:23;;;;;;;9.53;8.53;;;;;;;25.75;62.85;100337.59;2682968;88;21539;-61
2021/06/11 07:30:25;;;;;;;9.65;7.47;;;;;;;25.93;64.40;100342.72;2683526;88;21021;-61
2021/06/11 07:34:28;;;;;;;9.45;8.05;;;;;;;26.12;63.29;100337.27;2683466;88;21032;-60
2021/06/11 07:38:31;;;;;;;11.40;8.00;;;;;;;26.27;63.14;100344.56;2678292;88;21021;-61
2021/06/11 07:42:33;;;;;;;7.70;7.10;;;;;;;26.22;61.82;100347.15;2656970;88;21145;-61
2021/06/11 07:46:37;;;;;;;6.83;6.12;;;;;;;26.30;61.95;100354.19;2651346;88;21907;-61
2021/06/11 07:50:43;;;;;;;7.75;7.05;;;;;;;26.42;59.87;100355.61;2649658;90;21034;-60
2021/06/11 07:54:45;;;;;;;7.90;7.20;;;;;;;26.56;58.78;100346.19;2709081;86;20999;-60
2021/06/11 07:58:48;;;;;;;7.08;6.45;;;;;;;26.89;59.20;100348.98;2772785;86;21102;-60
2021/06/11 08:02:59;;;;;;;7.03;6.42;;;;;;;27.02;58.42;100349.33;2743079;84;21048;-61
2021/06/11 08:07:03;;;;;;;7.20;6.42;;;;;;;26.97;57.08;100360.64;2701786;86;21572;-61
2021/06/11 08:11:05;;;;;;;6.15;5.65;;;;;;;27.05;57.37;100352.95;2705522;86;21043;-61
2021/06/11 08:15:08;;;;;;;8.55;7.15;;;;;;;27.20;56.10;100353.86;2699532;88;21514;-61
2021/06/11 08:19:10;;;;;;;7.35;6.65;;;;;;;27.29;55.58;100355.72;2700442;88;21016;-61
2021/06/11 08:23:11;;;;;;;7.60;6.72;;;;;;;27.54;56.10;100349.22;2700221;88;21020;-61
2021/06/11 08:27:14;;;;;;;10.43;8.40;;;;;;;27.53;55.69;100353.58;2699991;88;21100;-61
2021/06/11 08:31:16;;;;;;;9.03;8.13;;;;;;;27.69;57.21;100347.38;2673648;88;21065;-61
2021/06/11 08:35:18;;;;;;;7.75;7.05;;;;;;;27.97;55.85;100341.70;2672000;89;21045;-61
2021/06/11 08:39:20;;;;;;;11.68;8.03;;;;;;;28.09;56.12;100342.49;2672028;89;21041;-62
2021/06/11 08:43:22;;;;;;;8.30;6.90;;;;;;;27.86;54.27;100337.08;2672058;89;21077;-60
2021/06/11 08:47:27;;;;;;;7.28;6.55;;;;;;;27.68;54.29;100333.97;2672119;89;21088;-61
2021/06/11 08:51:30;;;;;;;5.45;4.95;;;;;;;27.67;52.70;100342.68;2693862;86;21047;-60
2021/06/11 08:55:33;;;;;;;4.92;4.47;;;;;;;27.34;53.20;100345.46;2709670;87;21079;-61
2021/06/11 08:59:37;;;;;;;6.35;4.35;;;;;;;27.04;52.23;100347.72;2699458;88;21000;-60
2021/06/11 09:03:48;;;;;;;4.92;3.83;;;;;;;26.89;54.19;100354.44;2680232;87;21048;-60
2021/06/11 09:07:50;;;;;;;6.75;4.60;;;;;;;26.80;52.29;100355.81;2685267;88;21040;-59
2021/06/11 09:11:52;;;;;;;6.67;4.08;;;;;;;27.07;54.00;100349.45;2685474;88;21020;-60
2021/06/11 09:16:26;;;;;;;3.47;3.17;;;;;;;27.30;51.07;100340.15;2566130;93;21084;-60
2021/06/11 09:20:40;;;;;;;5.97;3.77;;;;;;;27.47;51.20;100342.48;2670567;89;21048;-60
2021/06/11 09:24:37;;;;;;;4.28;3.75;;;;;;;27.57;50.19;100342.47;2669316;89;21052;-60
2021/06/11 09:28:38;;;;;;;5.95;3.65;;;;;;;27.52;50.56;100348.63;2566339;92;21037;-60
2021/06/11 09:32:39;;;;;;;5.35;3.70;;;;;;;27.55;50.09;100341.87;2661594;88;21038;-61
2021/06/11 09:36:57;;;;;;;7.12;4.25;;;;;;;27.63;51.37;100336.03;2653651;89;21391;-60
2021/06/11 09:41:04;;;;;;;7.17;3.72;;;;;;;27.78;50.44;100336.91;2653679;89;21046;-61
2021/06/11 09:45:11;;;;;;;7.75;4.83;;;;;;;27.97;49.63;100336.77;2653308;89;21101;-59
2021/06/11 09:49:17;;;;;;;4.28;3.80;;;;;;;28.18;50.89;100328.48;2653657;89;21058;-60
2021/06/11 09:53:24;;;;;;;7.70;4.55;;;;;;;28.42;50.60;100331.14;2654118;89;21038;-60
2021/06/11 09:57:27;;;;;;;6.40;4.72;;;;;;;28.47;49.37;100316.18;2686619;88;21057;-61
2021/06/11 10:01:29;;;;;;;4.65;4.10;;;;;;;28.32;49.51;100323.05;2688250;88;21055;-60
2021/06/11 10:05:32;;;;;;;4.75;2.62;;;;;;;28.27;50.93;100320.73;2655371;89;21022;-61
2021/06/11 10:09:33;;;;;;;6.92;3.08;;;;;;;28.36;49.06;100313.79;2655226;89;21034;-60
2021/06/11 10:13:36;;;;;;;5.15;2.95;;;;;;;28.43;49.43;100310.39;2654592;89;21105;-60
2021/06/11 10:17:38;;;;;;;3.02;2.55;;;;;;;28.43;48.19;100303.55;2655353;89;21049;-60
2021/06/11 10:21:41;;;;;;;3.27;3.02;;;;;;;28.53;47.15;100296.59;2633881;89;21081;-61
2021/06/11 10:25:46;;;;;;;3.47;3.00;;;;;;;28.63;48.10;100293.50;2655401;89;21078;-60
2021/06/11 10:29:48;;;;;;;6.10;3.45;;;;;;;28.78;47.99;100288.02;2655444;89;21053;-61
2021/06/11 10:34:00;;;;;;;5.55;2.75;;;;;;;28.62;47.25;100295.95;2655017;89;21089;-61
2021/06/11 10:37:59;;;;;;;2.55;2.35;;;;;;;28.46;47.87;100285.80;2655384;89;21095;-61
2021/06/11 10:42:08;;;;;;;2.08;1.98;;;;;;;28.60;47.85;100272.11;2655335;89;21090;-60
2021/06/11 10:46:30;;;;;;;2.47;2.27;;;;;;;28.86;47.94;100267.65;2654992;89;21062;-60
2021/06/11 10:50:35;;;;;;;4.05;1.50;;;;;;;29.01;46.62;100269.80;2655430;89;21103;-61
2021/06/11 10:54:37;;;;;;;2.87;2.60;;;;;;;28.74;45.42;100264.97;2655581;89;21082;-61
2021/06/11 10:58:41;;;;;;;2.17;1.60;;;;;;;28.61;48.29;100266.94;2698517;88;21049;-60
2021/06/11 11:02:58;;;;;;;2.33;2.12;;;;;;;28.39;47.57;100271.45;2699834;88;21124;-59
2021/06/11 11:07:33;;;;;;;1.72;1.62;;;;;;;28.29;49.00;100270.17;2700054;88;20992;-60
2021/06/11 11:11:40;;;;;;;3.60;1.80;;;;;;;28.55;47.97;100273.40;2699045;88;21028;-61
2021/06/11 11:15:55;;;;;;;1.65;1.55;;;;;;;28.77;48.94;100261.73;2714976;87;21047;-60
2021/06/11 11:20:02;;;;;;;2.87;1.72;;;;;;;28.77;48.78;100269.38;2700026;88;21644;-60
2021/06/11 11:24:09;;;;;;;1.25;1.15;;;;;;;28.40;47.72;100269.86;2700168;87;21027;-60
2021/06/11 11:28:13;;;;;;;1.52;1.42;;;;;;;28.00;46.27;100266.05;2699270;88;21081;-61
2021/06/11 11:32:15;;;;;;;1.70;1.17;;;;;;;27.85;47.13;100269.31;2699476;88;21061;-60
2021/06/11 11:36:16;;;;;;;1.72;0.68;;;;;;;27.79;43.85;100260.69;2698827;88;21068;-61
2021/06/11 11:40:19;;;;;;;1.72;0.85;;;;;;;27.73;43.74;100252.95;2698669;88;21085;-61
2021/06/11 11:44:21;;;;;;;0.60;0.60;;;;;;;27.60;41.82;100260.03;2698762;88;21113;-60
2021/06/11 11:48:24;;;;;;;0.70;0.60;;;;;;;27.46;43.69;100260.24;2698820;88;21062;-60
2021/06/11 11:52:26;;;;;;;1.25;0.90;;;;;;;27.45;42.96;100254.48;2698699;88;21089;-60
2021/06/11 11:56:29;;;;;;;1.62;1.00;;;;;;;27.40;42.45;100253.02;2698547;88;21042;-60
2021/06/11 12:00:32;;;;;;;1.35;1.22;;;;;;;27.40;44.95;100250.28;2698570;88;21057;-60
2021/06/11 12:04:33;;;;;;;1.42;0.80;;;;;;;27.26;43.50;100247.50;2699926;88;21055;-61
2021/06/11 12:08:35;;;;;;;1.77;1.02;;;;;;;27.18;45.31;100247.32;2699885;88;21533;-60
2021/06/11 12:12:37;;;;;;;3.90;1.35;;;;;;;27.31;46.28;100239.41;2699716;87;21059;-60
2021/06/11 12:16:38;;;;;;;1.52;1.07;;;;;;;27.55;45.29;100235.34;2699953;88;21080;-61
2021/06/11 12:20:40;;;;;;;6.30;1.37;;;;;;;27.65;46.67;100233.66;2699088;88;21545;-61
2021/06/11 12:24:43;;;;;;;2.72;0.85;;;;;;;27.80;45.66;100229.55;2699981;87;21048;-61
2021/06/11 12:28:45;;;;;;;1.25;1.15;;;;;;;27.94;43.27;100221.93;2699664;88;22428;-61
2021/06/11 12:32:47;;;;;;;1.92;1.60;;;;;;;28.02;42.12;100229.73;2700158;88;21069;-61
2021/06/11 12:36:48;;;;;;;1.80;1.35;;;;;;;28.02;41.11;100229.73;2700194;88;21012;-62
2021/06/11 12:40:52;;;;;;;2.85;1.22;;;;;;;28.16;43.59;100217.17;2700082;88;21052;-61
2021/06/11 12:44:55;;;;;;;2.02;1.92;;;;;;;28.28;43.82;100206.98;2700189;88;21115;-62
2021/06/11 12:48:58;;;;;;;5.33;2.52;;;;;;;28.05;45.23;100207.37;2700115;88;21676;-62
2021/06/11 12:53:00;;;;;;;3.52;2.27;;;;;;;28.10;44.93;100195.70;2700243;88;21124;-61
2021/06/11 12:57:06;;;;;;;2.72;2.12;;;;;;;28.34;44.56;100199.19;2706853;87;21051;-61
2021/06/11 13:01:08;;;;;;;2.02;1.82;;;;;;;28.51;44.01;100197.01;2715998;87;21075;-61
2021/06/11 13:05:11;;;;;;;5.22;1.80;;;;;;;28.69;44.22;100199.19;2715991;87;21019;-62
2021/06/11 13:09:13;;;;;;;2.20;1.77;;;;;;;28.76;44.69;100197.94;2716290;87;21058;-61
2021/06/11 13:13:15;;;;;;;3.35;1.92;;;;;;;28.65;43.93;100194.77;2716053;86;21055;-61
2021/06/11 13:17:17;;;;;;;3.35;2.42;;;;;;;28.50;45.18;100198.09;2716093;87;21043;-62
2021/06/11 13:21:19;;;;;;;7.53;2.27;;;;;;;28.15;46.34;100190.33;2715600;87;21091;-61
2021/06/11 13:25:21;;;;;;;2.20;1.95;;;;;;;28.01;46.34;100186.26;2716068;87;21059;-61
2021/06/11 13:29:24;;;;;;;3.30;2.08;;;;;;;28.08;45.26;100186.92;2715555;87;21123;-61
2021/06/11 13:33:26;;;;;;;3.02;2.65;;;;;;;28.06;47.48;100183.05;2715921;87;21024;-62
2021/06/11 13:37:28;;;;;;;4.28;2.40;;;;;;;28.20;45.79;100180.05;2716170;87;21035;-62
2021/06/11 13:41:29;;;;;;;2.20;2.10;;;;;;;28.28;47.09;100181.01;2715697;87;21043;-61
2021/06/11 13:45:32;;;;;;;2.55;2.35;;;;;;;28.43;47.73;100186.45;2716044;87;21027;-62
2021/06/11 13:49:33;;;;;;;6.67;2.83;;;;;;;28.47;46.92;100187.62;2716055;87;21003;-62
2021/06/11 13:53:36;;;;;;;3.10;2.90;;;;;;;28.28;47.06;100187.84;2715932;87;21111;-61
2021/06/11 13:57:37;;;;;;;3.50;3.15;;;;;;;28.08;47.88;100185.55;2715939;87;21074;-61
2021/06/11 14:01:39;;;;;;;4.03;2.87;;;;;;;28.08;48.68;100179.53;2715695;87;21076;-62
2021/06/11 14:05:41;;;;;;;3.27;2.52;;;;;;;28.08;47.71;100183.64;2716185;87;21023;-61
2021/06/11 14:09:42;;;;;;;4.03;2.25;;;;;;;28.02;49.21;100186.55;2716146;87;21110;-61
2021/06/11 14:13:47;;;;;;;3.50;3.10;;;;;;;27.90;47.97;100183.31;2715957;87;21023;-61
2021/06/11 14:17:48;;;;;;;3.45;2.98;;;;;;;27.74;47.33;100174.00;2716070;87;21007;-62
2021/06/11 14:21:50;;;;;;;2.77;2.50;;;;;;;27.66;50.90;100174.37;2715894;87;21091;-62
2021/06/11 14:25:51;;;;;;;7.03;2.60;;;;;;;27.66;49.62;100175.73;2715894;87;20972;-61
2021/06/11 14:29:55;;;;;;;2.55;2.35;;;;;;;27.54;48.92;100176.33;2715526;87;21099;-62
2021/06/11 14:33:58;;;;;;;4.47;2.85;;;;;;;27.34;48.60;100177.52;2688833;87;21113;-60
2021/06/11 14:37:59;;;;;;;2.52;2.33;;;;;;;27.15;49.44;100172.20;2630953;90;21092;-60
2021/06/11 14:42:01;;;;;;;3.77;3.33;;;;;;;27.03;50.03;100170.02;2588171;90;21105;-60
2021/06/11 14:46:03;;;;;;;3.10;2.80;;;;;;;27.01;50.68;100174.88;2618994;91;21048;-63
2021/06/11 14:50:06;;;;;;;5.37;2.40;;;;;;;26.94;50.65;100168.17;2630657;90;21031;-65
2021/06/11 14:54:08;;;;;;;4.33;2.95;;;;;;;26.85;50.96;100169.06;2629646;90;21021;-66
2021/06/11 14:58:13;;;;;;;2.65;2.42;;;;;;;26.80;52.73;100173.02;2578223;91;21098;-67
2021/06/11 15:02:15;;;;;;;3.07;2.43;;;;;;;26.73;51.63;100166.30;2632896;88;21095;-61
2021/06/11 15:06:17;;;;;;;3.52;2.70;;;;;;;26.71;51.93;100170.33;2656295;89;21060;-61
2021/06/11 15:10:19;;;;;;;2.72;2.33;;;;;;;26.78;51.52;100165.60;2656185;89;21052;-63
2021/06/11 15:14:22;;;;;;;3.42;2.75;;;;;;;26.91;51.65;100164.02;2644274;90;21100;-61
2021/06/11 15:18:27;;;;;;;4.53;2.45;;;;;;;27.08;51.06;100158.68;2656267;89;21064;-60
2021/06/11 15:22:30;;;;;;;2.77;2.58;;;;;;;27.21;51.99;100160.32;2656617;89;21048;-63
2021/06/11 15:26:31;;;;;;;4.87;2.60;;;;;;;27.31;50.84;100154.77;2656255;89;21048;-61
2021/06/11 15:30:33;;;;;;;3.35;3.02;;;;;;;27.33;50.77;100149.37;2656952;89;21052;-61
2021/06/11 15:34:35;;;;;;;4.35;3.72;;;;;;;27.34;49.63;100152.39;2656776;89;21017;-63
2021/06/11 15:38:37;;;;;;;3.40;3.05;;;;;;;27.41;50.52;100145.44;2644966;90;21066;-61
2021/06/11 15:42:39;;;;;;;3.30;2.83;;;;;;;27.48;49.84;100146.12;2649749;89;21108;-61
2021/06/11 15:46:41;;;;;;;4.08;3.10;;;;;;;27.54;49.97;100144.36;2664426;89;21047;-61
2021/06/11 15:50:43;;;;;;;3.00;2.80;;;;;;;27.59;50.43;100145.01;2665074;88;21044;-60
2021/06/11 15:54:45;;;;;;;4.47;2.95;;;;;;;27.51;49.73;100141.59;2665207;88;21020;-62
2021/06/11 15:58:46;;;;;;;4.60;3.47;;;;;;;27.42;50.94;100137.54;2663602;89;21072;-61
2021/06/11 16:02:48;;;;;;;3.37;3.00;;;;;;;27.40;51.95;100136.95;2625975;90;21106;-61
2021/06/11 16:06:54;;;;;;;5.83;2.98;;;;;;;27.36;52.29;100139.33;2646221;90;21114;-60
2021/06/11 16:10:53;;;;;;;2.77;2.47;;;;;;;27.41;51.00;100144.08;2645869;90;21296;-60
2021/06/11 16:14:55;;;;;;;3.22;2.90;;;;;;;27.43;51.45;100139.20;2645858;90;20991;-60
2021/06/11 16:18:57;;;;;;;4.90;3.40;;;;;;;27.39;51.76;100138.03;2646129;90;21074;-61
2021/06/11 16:22:59;;;;;;;3.67;3.05;;;;;;;27.40;52.48;100141.05;2646579;90;21093;-61
2021/06/11 16:27:01;;;;;;;3.75;3.37;;;;;;;27.41;51.88;100135.88;2646595;90;21057;-62
2021/06/11 16:31:06;;;;;;;3.62;3.30;;;;;;;27.45;52.29;100141.15;2646388;90;21087;-62
2021/06/11 16:35:09;;;;;;;3.75;3.35;;;;;;;27.45;52.23;100142.52;2646050;90;21054;-61
2021/06/11 16:39:10;;;;;;;4.28;3.42;;;;;;;27.41;52.78;100145.44;2646280;89;21077;-61
2021/06/11 16:43:13;;;;;;;5.08;3.50;;;;;;;27.38;54.42;100145.92;2646159;89;21062;-61
2021/06/11 16:47:17;;;;;;;7.80;3.67;;;;;;;27.28;54.50;100145.18;2646112;90;21066;-61
2021/06/11 16:51:18;;;;;;;3.98;3.67;;;;;;;27.19;55.39;100143.35;2646031;90;21072;-61
2021/06/11 16:55:20;;;;;;;4.65;4.25;;;;;;;27.08;55.49;100137.37;2630291;89;21085;-61
2021/06/11 16:59:22;;;;;;;4.15;3.25;;;;;;;26.95;54.42;100137.09;2605022;91;21081;-61
2021/06/11 17:03:24;;;;;;;7.67;3.08;;;;;;;26.85;53.88;100136.32;2632274;89;21070;-63
2021/06/11 17:07:25;;;;;;;3.80;3.42;;;;;;;26.80;54.49;100132.91;2646608;90;21551;-61
2021/06/11 17:11:27;;;;;;;4.37;3.58;;;;;;;26.79;54.49;100131.80;2646473;90;21019;-61
2021/06/11 17:15:28;;;;;;;6.83;4.50;;;;;;;26.75;54.01;100137.44;2646353;90;21046;-61
2021/06/11 17:19:30;;;;;;;9.70;4.60;;;;;;;26.71;55.06;100145.25;2646328;90;20995;-61
2021/06/11 17:23:33;;;;;;;6.05;4.42;;;;;;;26.70;54.24;100139.50;2645727;90;21031;-61
2021/06/11 17:27:34;;;;;;;8.00;4.40;;;;;;;26.71;55.99;100145.25;2646177;90;21030;-64
2021/06/11 17:31:36;;;;;;;21.55;6.08;;;;;;;26.65;57.51;100139.39;2645834;90;21046;-61
2021/06/11 17:35:40;;;;;;;3.87;3.45;;;;;;;26.71;58.19;100143.89;2645608;90;21029;-62
2021/06/11 17:39:43;;;;;;;5.17;3.50;;;;;;;26.73;59.41;100143.67;2646294;89;21077;-61
2021/06/11 17:43:45;;;;;;;3.58;3.25;;;;;;;26.72;59.91;100139.25;2646478;90;21111;-61
2021/06/11 17:47:52;;;;;;;7.30;3.35;;;;;;;26.73;60.25;100149.13;2646469;90;21038;-62
2021/06/11 17:52:00;;;;;;;6.45;3.70;;;;;;;26.76;60.73;100150.01;2646387;90;21078;-61
2021/06/11 17:56:05;;;;;;;7.72;3.75;;;;;;;26.73;59.56;100151.30;2646461;90;21041;-61
2021/06/11 18:00:09;;;;;;;3.80;3.45;;;;;;;26.73;58.99;100158.67;2642807;90;21069;-61
2021/06/11 18:04:16;;;;;;;4.08;3.72;;;;;;;26.70;58.89;100157.75;2663704;88;21054;-62
2021/06/11 18:08:23;;;;;;;5.83;3.75;;;;;;;26.70;58.82;100157.23;2637738;90;21042;-61
2021/06/11 18:12:28;;;;;;;6.95;3.95;;;;;;;26.60;59.24;100161.91;2574347;92;21097;-66
2021/06/11 18:16:31;;;;;;;9.85;4.58;;;;;;;26.49;59.79;100160.83;2665769;88;21043;-61
2021/06/11 18:20:33;;;;;;;32.17;9.75;;;;;;;26.38;60.56;100161.11;2674050;88;21010;-62
2021/06/11 18:24:35;;;;;;;53.05;13.25;;;;;;;26.34;60.61;100167.27;2677015;88;21066;-62
2021/06/11 18:28:39;;;;;;;23.40;9.68;;;;;;;26.23;60.90;100165.63;2684754;88;21056;-62
2021/06/11 18:32:45;;;;;;;8.65;7.70;;;;;;;26.09;61.19;100165.52;2680062;88;21130;-62
2021/06/11 18:36:46;;;;;;;12.90;8.78;;;;;;;25.92;62.01;100162.59;2658804;89;21081;-63
2021/06/11 18:40:48;;;;;;;10.38;7.75;;;;;;;25.75;62.25;100167.34;2659778;88;21078;-65
2021/06/11 18:44:51;;;;;;;9.33;6.67;;;;;;;25.57;63.18;100166.01;2681045;88;21041;-61
2021/06/11 18:48:54;;;;;;;10.80;7.67;;;;;;;25.35;64.12;100165.05;2676554;87;21041;-61